sensor_id;sensor_type;location;lat;lon;timestamp;P1;durP1;ratioP1;P2;durP2;ratioP2
1174;SDS011;576;48.418;10.074;2023-05-20T00:01:16;3.57;;;2.70;;
1174;SDS011;576;48.418;10.074;2023-05-20T00:03:45;3.33;;;3.13;;
1174;SDS011;576;48.418;10.074;2023-05-20T00:06:14;3.37;;;3.10;;
1174;SDS011;576;48.418;10.074;2023-05-20T00:08:42;3.23;;;3.03;;
1174;SDS011;576;48.418;10.074;2023-05-20T00:11:10;3.07;;;2.77;;
1174;SDS011;576;48.418;10.074;2023-05-20T00:13:40;3.33;;;3.13;;
1174;SDS011;576;48.418;10.074;2023-05-20T00:16:08;3.07;;;2.87;;
1174;SDS011;576;48.418;10.074;2023-05-20T00:18:36;3.53;;;3.23;;
1174;SDS011;576;48.418;10.074;2023-05-20T00:21:04;3.97;;;3.00;;
1174;SDS011;576;48.418;10.074;2023-05-20T00:23:32;3.37;;;3.00;;
1174;SDS011;576;48.418;10.074;2023-05-20T00:26:01;4.50;;;3.50;;
1174;SDS011;576;48.418;10.074;2023-05-20T00:28:29;3.40;;;3.10;;
1174;SDS011;576;48.418;10.074;2023-05-20T00:30:59;3.67;;;3.00;;
1174;SDS011;576;48.418;10.074;2023-05-20T00:33:27;3.10;;;2.90;;
1174;SDS011;576;48.418;10.074;2023-05-20T00:35:55;5.20;;;4.07;;
1174;SDS011;576;48.418;10.074;2023-05-20T00:38:23;3.63;;;2.90;;
1174;SDS011;576;48.418;10.074;2023-05-20T00:40:51;4.00;;;3.10;;
1174;SDS011;576;48.418;10.074;2023-05-20T00:43:20;3.83;;;3.50;;
1174;SDS011;576;48.418;10.074;2023-05-20T00:45:50;3.83;;;3.10;;
1174;SDS011;576;48.418;10.074;2023-05-20T00:48:21;2.73;;;2.57;;
1174;SDS011;576;48.418;10.074;2023-05-20T00:50:49;3.47;;;3.13;;
1174;SDS011;576;48.418;10.074;2023-05-20T00:53:18;3.20;;;2.90;;
1174;SDS011;576;48.418;10.074;2023-05-20T00:55:48;3.97;;;3.47;;
1174;SDS011;576;48.418;10.074;2023-05-20T00:58:16;3.40;;;3.10;;
1174;SDS011;576;48.418;10.074;2023-05-20T01:00:44;2.90;;;2.70;;
1174;SDS011;576;48.418;10.074;2023-05-20T01:03:13;3.27;;;2.87;;
1174;SDS011;576;48.418;10.074;2023-05-20T01:05:44;4.60;;;2.70;;
1174;SDS011;576;48.418;10.074;2023-05-20T01:08:12;3.23;;;2.93;;
1174;SDS011;576;48.418;10.074;2023-05-20T01:10:41;2.67;;;2.47;;
1174;SDS011;576;48.418;10.074;2023-05-20T01:13:14;3.43;;;3.20;;
1174;SDS011;576;48.418;10.074;2023-05-20T01:15:46;3.30;;;3.10;;
1174;SDS011;576;48.418;10.074;2023-05-20T01:18:15;2.67;;;2.50;;
1174;SDS011;576;48.418;10.074;2023-05-20T01:20:48;3.80;;;3.50;;
1174;SDS011;576;48.418;10.074;2023-05-20T01:23:20;2.93;;;2.73;;
1174;SDS011;576;48.418;10.074;2023-05-20T01:25:49;5.13;;;3.07;;
1174;SDS011;576;48.418;10.074;2023-05-20T01:28:17;2.80;;;2.60;;
1174;SDS011;576;48.418;10.074;2023-05-20T01:30:46;5.20;;;2.73;;
1174;SDS011;576;48.418;10.074;2023-05-20T01:33:19;3.03;;;2.83;;
1174;SDS011;576;48.418;10.074;2023-05-20T01:35:49;2.67;;;2.57;;
1174;SDS011;576;48.418;10.074;2023-05-20T01:38:18;3.17;;;2.97;;
1174;SDS011;576;48.418;10.074;2023-05-20T01:40:50;3.97;;;3.67;;
1174;SDS011;576;48.418;10.074;2023-05-20T01:43:20;3.00;;;2.80;;
1174;SDS011;576;48.418;10.074;2023-05-20T01:45:49;2.97;;;2.80;;
1174;SDS011;576;48.418;10.074;2023-05-20T01:48:17;3.53;;;3.33;;
1174;SDS011;576;48.418;10.074;2023-05-20T01:50:45;3.30;;;3.00;;
1174;SDS011;576;48.418;10.074;2023-05-20T01:53:15;3.30;;;2.87;;
1174;SDS011;576;48.418;10.074;2023-05-20T01:55:44;5.57;;;3.10;;
1174;SDS011;576;48.418;10.074;2023-05-20T01:58:13;3.10;;;2.77;;
1174;SDS011;576;48.418;10.074;2023-05-20T02:00:42;3.70;;;3.40;;
1174;SDS011;576;48.418;10.074;2023-05-20T02:03:11;2.70;;;2.50;;
1174;SDS011;576;48.418;10.074;2023-05-20T02:05:39;3.77;;;3.47;;
1174;SDS011;576;48.418;10.074;2023-05-20T02:08:08;6.40;;;3.37;;
1174;SDS011;576;48.418;10.074;2023-05-20T02:10:36;4.00;;;3.07;;
1174;SDS011;576;48.418;10.074;2023-05-20T02:13:06;3.30;;;3.00;;
1174;SDS011;576;48.418;10.074;2023-05-20T02:15:34;3.97;;;3.67;;
1174;SDS011;576;48.418;10.074;2023-05-20T02:18:02;3.20;;;3.00;;
1174;SDS011;576;48.418;10.074;2023-05-20T02:20:32;3.87;;;3.57;;
1174;SDS011;576;48.418;10.074;2023-05-20T02:23:02;4.60;;;3.77;;
1174;SDS011;576;48.418;10.074;2023-05-20T02:25:31;3.90;;;3.50;;
1174;SDS011;576;48.418;10.074;2023-05-20T02:27:59;3.70;;;3.40;;
1174;SDS011;576;48.418;10.074;2023-05-20T02:30:32;4.00;;;3.60;;
1174;SDS011;576;48.418;10.074;2023-05-20T02:33:01;3.40;;;3.10;;
1174;SDS011;576;48.418;10.074;2023-05-20T02:35:29;3.20;;;3.00;;
1174;SDS011;576;48.418;10.074;2023-05-20T02:37:58;3.73;;;3.50;;
1174;SDS011;576;48.418;10.074;2023-05-20T02:40:26;4.37;;;4.07;;
1174;SDS011;576;48.418;10.074;2023-05-20T02:42:55;3.90;;;3.50;;
1174;SDS011;576;48.418;10.074;2023-05-20T02:45:23;4.03;;;3.73;;
1174;SDS011;576;48.418;10.074;2023-05-20T02:47:53;9.60;;;4.33;;
1174;SDS011;576;48.418;10.074;2023-05-20T02:50:21;3.20;;;2.90;;
1174;SDS011;576;48.418;10.074;2023-05-20T02:52:49;3.60;;;3.30;;
1174;SDS011;576;48.418;10.074;2023-05-20T02:55:17;4.07;;;3.77;;
1174;SDS011;576;48.418;10.074;2023-05-20T02:57:46;3.57;;;3.13;;
1174;SDS011;576;48.418;10.074;2023-05-20T03:00:15;4.00;;;3.70;;
1174;SDS011;576;48.418;10.074;2023-05-20T03:02:44;4.30;;;3.83;;
1174;SDS011;576;48.418;10.074;2023-05-20T03:05:15;4.20;;;3.90;;
1174;SDS011;576;48.418;10.074;2023-05-20T03:07:43;3.20;;;3.00;;
1174;SDS011;576;48.418;10.074;2023-05-20T03:10:14;4.33;;;3.93;;
1174;SDS011;576;48.418;10.074;2023-05-20T03:12:42;3.83;;;3.53;;
1174;SDS011;576;48.418;10.074;2023-05-20T03:15:11;3.20;;;3.00;;
1174;SDS011;576;48.418;10.074;2023-05-20T03:17:39;4.67;;;3.13;;
1174;SDS011;576;48.418;10.074;2023-05-20T03:20:07;3.90;;;3.60;;
1174;SDS011;576;48.418;10.074;2023-05-20T03:22:40;3.03;;;2.83;;
1174;SDS011;576;48.418;10.074;2023-05-20T03:25:09;3.67;;;3.37;;
1174;SDS011;576;48.418;10.074;2023-05-20T03:27:37;4.13;;;3.83;;
1174;SDS011;576;48.418;10.074;2023-05-20T03:30:06;3.57;;;3.37;;
1174;SDS011;576;48.418;10.074;2023-05-20T03:32:35;3.77;;;3.47;;
1174;SDS011;576;48.418;10.074;2023-05-20T03:35:04;3.60;;;3.30;;
1174;SDS011;576;48.418;10.074;2023-05-20T03:37:34;3.33;;;3.03;;
1174;SDS011;576;48.418;10.074;2023-05-20T03:40:04;3.73;;;3.43;;
1174;SDS011;576;48.418;10.074;2023-05-20T03:42:36;3.63;;;3.43;;
1174;SDS011;576;48.418;10.074;2023-05-20T03:45:05;3.57;;;3.27;;
1174;SDS011;576;48.418;10.074;2023-05-20T03:47:41;3.40;;;3.20;;
1174;SDS011;576;48.418;10.074;2023-05-20T03:50:10;4.17;;;3.87;;
1174;SDS011;576;48.418;10.074;2023-05-20T03:52:40;3.40;;;3.17;;
1174;SDS011;576;48.418;10.074;2023-05-20T03:55:09;4.67;;;4.27;;
1174;SDS011;576;48.418;10.074;2023-05-20T03:57:38;4.30;;;3.93;;
1174;SDS011;576;48.418;10.074;2023-05-20T04:00:06;4.60;;;4.20;;
1174;SDS011;576;48.418;10.074;2023-05-20T04:02:42;5.03;;;4.63;;
1174;SDS011;576;48.418;10.074;2023-05-20T04:05:14;5.03;;;4.50;;
1174;SDS011;576;48.418;10.074;2023-05-20T04:07:42;4.40;;;4.10;;
1174;SDS011;576;48.418;10.074;2023-05-20T04:10:13;4.50;;;4.17;;
1174;SDS011;576;48.418;10.074;2023-05-20T04:12:42;5.20;;;3.47;;
1174;SDS011;576;48.418;10.074;2023-05-20T04:15:11;3.93;;;3.73;;
1174;SDS011;576;48.418;10.074;2023-05-20T04:17:49;3.97;;;3.57;;
1174;SDS011;576;48.418;10.074;2023-05-20T04:20:18;3.03;;;2.83;;
1174;SDS011;576;48.418;10.074;2023-05-20T04:22:47;4.20;;;3.83;;
1174;SDS011;576;48.418;10.074;2023-05-20T04:25:17;3.73;;;3.43;;
1174;SDS011;576;48.418;10.074;2023-05-20T04:27:45;3.90;;;3.60;;
1174;SDS011;576;48.418;10.074;2023-05-20T04:30:15;3.73;;;3.47;;
1174;SDS011;576;48.418;10.074;2023-05-20T04:32:44;3.47;;;3.27;;
1174;SDS011;576;48.418;10.074;2023-05-20T04:35:13;3.00;;;2.80;;
1174;SDS011;576;48.418;10.074;2023-05-20T04:37:44;3.50;;;3.20;;
1174;SDS011;576;48.418;10.074;2023-05-20T04:40:14;5.03;;;4.50;;
1174;SDS011;576;48.418;10.074;2023-05-20T04:42:46;3.93;;;3.63;;
1174;SDS011;576;48.418;10.074;2023-05-20T04:45:14;3.37;;;3.17;;
1174;SDS011;576;48.418;10.074;2023-05-20T04:47:43;3.60;;;3.30;;
1174;SDS011;576;48.418;10.074;2023-05-20T04:50:12;3.00;;;2.80;;
1174;SDS011;576;48.418;10.074;2023-05-20T04:52:40;4.43;;;4.10;;
1174;SDS011;576;48.418;10.074;2023-05-20T04:55:11;4.97;;;4.57;;
1174;SDS011;576;48.418;10.074;2023-05-20T04:57:41;4.10;;;3.80;;
1174;SDS011;576;48.418;10.074;2023-05-20T05:00:12;4.60;;;4.20;;
1174;SDS011;576;48.418;10.074;2023-05-20T05:02:41;3.70;;;3.40;;
1174;SDS011;576;48.418;10.074;2023-05-20T05:05:09;4.20;;;3.90;;
1174;SDS011;576;48.418;10.074;2023-05-20T05:07:38;3.83;;;3.53;;
1174;SDS011;576;48.418;10.074;2023-05-20T05:10:06;3.50;;;3.30;;
1174;SDS011;576;48.418;10.074;2023-05-20T05:12:35;3.53;;;3.33;;
1174;SDS011;576;48.418;10.074;2023-05-20T05:15:04;3.80;;;3.50;;
1174;SDS011;576;48.418;10.074;2023-05-20T05:17:34;3.90;;;3.60;;
1174;SDS011;576;48.418;10.074;2023-05-20T05:20:03;4.70;;;4.27;;
1174;SDS011;576;48.418;10.074;2023-05-20T05:22:34;4.60;;;4.20;;
1174;SDS011;576;48.418;10.074;2023-05-20T05:25:02;4.17;;;3.87;;
1174;SDS011;576;48.418;10.074;2023-05-20T05:27:31;4.80;;;4.43;;
1174;SDS011;576;48.418;10.074;2023-05-20T05:30:00;4.90;;;4.50;;
1174;SDS011;576;48.418;10.074;2023-05-20T05:32:29;5.27;;;4.87;;
1174;SDS011;576;48.418;10.074;2023-05-20T05:34:59;4.50;;;4.20;;
1174;SDS011;576;48.418;10.074;2023-05-20T05:37:27;4.50;;;4.20;;
1174;SDS011;576;48.418;10.074;2023-05-20T05:39:55;4.60;;;4.30;;
1174;SDS011;576;48.418;10.074;2023-05-20T05:42:24;4.63;;;4.33;;
1174;SDS011;576;48.418;10.074;2023-05-20T05:44:54;4.80;;;4.40;;
1174;SDS011;576;48.418;10.074;2023-05-20T05:47:22;5.60;;;5.10;;
1174;SDS011;576;48.418;10.074;2023-05-20T05:49:55;3.93;;;3.53;;
1174;SDS011;576;48.418;10.074;2023-05-20T05:52:25;4.13;;;3.83;;
1174;SDS011;576;48.418;10.074;2023-05-20T05:54:53;4.23;;;3.93;;
1174;SDS011;576;48.418;10.074;2023-05-20T05:57:21;5.47;;;5.07;;
1174;SDS011;576;48.418;10.074;2023-05-20T05:59:50;4.67;;;4.27;;
1174;SDS011;576;48.418;10.074;2023-05-20T06:02:18;5.20;;;4.80;;
1174;SDS011;576;48.418;10.074;2023-05-20T06:04:47;3.67;;;3.47;;
1174;SDS011;576;48.418;10.074;2023-05-20T06:07:15;4.23;;;3.93;;
1174;SDS011;576;48.418;10.074;2023-05-20T06:09:45;4.97;;;4.53;;
1174;SDS011;576;48.418;10.074;2023-05-20T06:12:13;4.83;;;4.53;;
1174;SDS011;576;48.418;10.074;2023-05-20T06:14:42;5.37;;;4.97;;
1174;SDS011;576;48.418;10.074;2023-05-20T06:17:10;3.93;;;3.63;;
1174;SDS011;576;48.418;10.074;2023-05-20T06:19:38;3.60;;;3.40;;
1174;SDS011;576;48.418;10.074;2023-05-20T06:22:07;5.23;;;4.83;;
1174;SDS011;576;48.418;10.074;2023-05-20T06:24:35;3.40;;;3.10;;
1174;SDS011;576;48.418;10.074;2023-05-20T06:27:06;5.87;;;5.37;;
1174;SDS011;576;48.418;10.074;2023-05-20T06:29:34;3.03;;;2.83;;
1174;SDS011;576;48.418;10.074;2023-05-20T06:32:02;5.10;;;4.70;;
1174;SDS011;576;48.418;10.074;2023-05-20T06:34:31;4.90;;;4.50;;
1174;SDS011;576;48.418;10.074;2023-05-20T06:37:00;4.00;;;3.53;;
1174;SDS011;576;48.418;10.074;2023-05-20T06:39:28;5.93;;;5.43;;
1174;SDS011;576;48.418;10.074;2023-05-20T06:41:56;5.80;;;5.40;;
1174;SDS011;576;48.418;10.074;2023-05-20T06:44:30;5.57;;;5.17;;
1174;SDS011;576;48.418;10.074;2023-05-20T06:47:20;5.87;;;5.37;;
1174;SDS011;576;48.418;10.074;2023-05-20T06:49:49;3.80;;;3.50;;
1174;SDS011;576;48.418;10.074;2023-05-20T06:52:18;5.77;;;5.27;;
1174;SDS011;576;48.418;10.074;2023-05-20T06:54:46;6.67;;;6.17;;
1174;SDS011;576;48.418;10.074;2023-05-20T06:57:16;5.93;;;5.30;;
1174;SDS011;576;48.418;10.074;2023-05-20T06:59:45;6.83;;;6.23;;
1174;SDS011;576;48.418;10.074;2023-05-20T07:02:15;5.60;;;5.20;;
1174;SDS011;576;48.418;10.074;2023-05-20T07:04:43;5.60;;;5.20;;
1174;SDS011;576;48.418;10.074;2023-05-20T07:07:12;5.90;;;4.80;;
1174;SDS011;576;48.418;10.074;2023-05-20T07:09:43;5.40;;;4.97;;
1174;SDS011;576;48.418;10.074;2023-05-20T07:12:12;5.87;;;5.40;;
1174;SDS011;576;48.418;10.074;2023-05-20T07:14:41;6.43;;;5.93;;
1174;SDS011;576;48.418;10.074;2023-05-20T07:17:11;5.83;;;5.33;;
1174;SDS011;576;48.418;10.074;2023-05-20T07:19:41;7.80;;;7.20;;
1174;SDS011;576;48.418;10.074;2023-05-20T07:22:09;7.67;;;7.07;;
1174;SDS011;576;48.418;10.074;2023-05-20T07:24:52;7.23;;;6.73;;
1174;SDS011;576;48.418;10.074;2023-05-20T07:27:20;7.50;;;6.90;;
1174;SDS011;576;48.418;10.074;2023-05-20T07:29:48;8.83;;;7.93;;
1174;SDS011;576;48.418;10.074;2023-05-20T07:32:18;6.83;;;6.23;;
1174;SDS011;576;48.418;10.074;2023-05-20T07:38:46;6.73;;;6.13;;
1174;SDS011;576;48.418;10.074;2023-05-20T07:41:29;6.53;;;5.93;;
1174;SDS011;576;48.418;10.074;2023-05-20T07:43:57;5.03;;;4.60;;
1174;SDS011;576;48.418;10.074;2023-05-20T07:46:26;6.33;;;5.83;;
1174;SDS011;576;48.418;10.074;2023-05-20T07:48:55;5.73;;;5.23;;
1174;SDS011;576;48.418;10.074;2023-05-20T07:51:24;5.50;;;5.10;;
1174;SDS011;576;48.418;10.074;2023-05-20T07:53:53;5.47;;;5.03;;
1174;SDS011;576;48.418;10.074;2023-05-20T07:56:21;6.13;;;5.60;;
1174;SDS011;576;48.418;10.074;2023-05-20T07:58:52;6.80;;;6.23;;
1174;SDS011;576;48.418;10.074;2023-05-20T08:01:27;8.27;;;7.57;;
1174;SDS011;576;48.418;10.074;2023-05-20T08:03:57;6.73;;;6.13;;
1174;SDS011;576;48.418;10.074;2023-05-20T08:06:25;6.90;;;6.30;;
1174;SDS011;576;48.418;10.074;2023-05-20T08:08:56;7.63;;;7.13;;
1174;SDS011;576;48.418;10.074;2023-05-20T08:11:29;7.17;;;6.50;;
1174;SDS011;576;48.418;10.074;2023-05-20T08:13:59;7.80;;;7.03;;
1174;SDS011;576;48.418;10.074;2023-05-20T08:16:35;8.63;;;7.83;;
1174;SDS011;576;48.418;10.074;2023-05-20T08:19:06;7.13;;;6.53;;
1174;SDS011;576;48.418;10.074;2023-05-20T08:21:35;6.57;;;5.97;;
1174;SDS011;576;48.418;10.074;2023-05-20T08:24:05;7.83;;;6.30;;
1174;SDS011;576;48.418;10.074;2023-05-20T08:26:35;7.00;;;6.50;;
1174;SDS011;576;48.418;10.074;2023-05-20T08:29:04;6.67;;;6.07;;
1174;SDS011;576;48.418;10.074;2023-05-20T08:31:34;6.70;;;6.03;;
1174;SDS011;576;48.418;10.074;2023-05-20T08:34:03;7.10;;;6.53;;
1174;SDS011;576;48.418;10.074;2023-05-20T08:36:34;7.00;;;6.30;;
1174;SDS011;576;48.418;10.074;2023-05-20T08:39:04;6.70;;;6.10;;
1174;SDS011;576;48.418;10.074;2023-05-20T08:41:33;10.30;;;9.50;;
1174;SDS011;576;48.418;10.074;2023-05-20T08:44:02;8.30;;;7.57;;
1174;SDS011;576;48.418;10.074;2023-05-20T08:46:34;6.87;;;6.37;;
1174;SDS011;576;48.418;10.074;2023-05-20T08:49:06;7.03;;;6.53;;
1174;SDS011;576;48.418;10.074;2023-05-20T08:51:35;7.83;;;6.30;;
1174;SDS011;576;48.418;10.074;2023-05-20T08:54:05;7.00;;;6.40;;
1174;SDS011;576;48.418;10.074;2023-05-20T08:56:35;6.93;;;6.30;;
1174;SDS011;576;48.418;10.074;2023-05-20T08:59:05;6.83;;;6.23;;
1174;SDS011;576;48.418;10.074;2023-05-20T09:01:34;7.47;;;6.77;;
1174;SDS011;576;48.418;10.074;2023-05-20T09:04:10;8.20;;;6.73;;
1174;SDS011;576;48.418;10.074;2023-05-20T09:06:42;10.80;;;7.03;;
1174;SDS011;576;48.418;10.074;2023-05-20T09:09:11;7.80;;;5.70;;
1174;SDS011;576;48.418;10.074;2023-05-20T09:11:41;6.43;;;5.87;;
1174;SDS011;576;48.418;10.074;2023-05-20T09:14:10;7.00;;;6.50;;
1174;SDS011;576;48.418;10.074;2023-05-20T09:16:39;6.73;;;6.13;;
1174;SDS011;576;48.418;10.074;2023-05-20T09:19:08;8.63;;;7.90;;
1174;SDS011;576;48.418;10.074;2023-05-20T09:21:39;7.70;;;7.10;;
1174;SDS011;576;48.418;10.074;2023-05-20T09:24:08;7.87;;;7.17;;
1174;SDS011;576;48.418;10.074;2023-05-20T09:26:36;8.40;;;6.97;;
1174;SDS011;576;48.418;10.074;2023-05-20T09:29:05;11.03;;;7.80;;
1174;SDS011;576;48.418;10.074;2023-05-20T09:31:34;8.37;;;7.67;;
1174;SDS011;576;48.418;10.074;2023-05-20T09:34:04;8.23;;;7.27;;
1174;SDS011;576;48.418;10.074;2023-05-20T09:36:34;8.77;;;8.07;;
1174;SDS011;576;48.418;10.074;2023-05-20T09:39:05;8.70;;;8.00;;
1174;SDS011;576;48.418;10.074;2023-05-20T09:41:41;7.80;;;7.13;;
1174;SDS011;576;48.418;10.074;2023-05-20T09:44:16;9.23;;;8.40;;
1174;SDS011;576;48.418;10.074;2023-05-20T09:46:46;7.63;;;6.77;;
1174;SDS011;576;48.418;10.074;2023-05-20T09:49:15;7.13;;;6.63;;
1174;SDS011;576;48.418;10.074;2023-05-20T09:51:45;8.47;;;7.77;;
1174;SDS011;576;48.418;10.074;2023-05-20T09:54:16;7.17;;;6.67;;
1174;SDS011;576;48.418;10.074;2023-05-20T09:56:46;7.60;;;6.90;;
1174;SDS011;576;48.418;10.074;2023-05-20T09:59:14;7.50;;;6.80;;
1174;SDS011;576;48.418;10.074;2023-05-20T10:01:43;6.90;;;6.40;;
1174;SDS011;576;48.418;10.074;2023-05-20T10:04:12;7.70;;;6.83;;
1174;SDS011;576;48.418;10.074;2023-05-20T10:06:54;7.50;;;6.77;;
1174;SDS011;576;48.418;10.074;2023-05-20T10:09:42;7.80;;;7.20;;
1174;SDS011;576;48.418;10.074;2023-05-20T10:12:21;7.73;;;7.03;;
1174;SDS011;576;48.418;10.074;2023-05-20T10:14:58;7.50;;;6.93;;
1174;SDS011;576;48.418;10.074;2023-05-20T10:17:38;7.60;;;7.00;;
1174;SDS011;576;48.418;10.074;2023-05-20T10:20:13;7.93;;;7.23;;
1174;SDS011;576;48.418;10.074;2023-05-20T10:22:42;7.40;;;6.80;;
1174;SDS011;576;48.418;10.074;2023-05-20T10:25:23;8.40;;;7.57;;
1174;SDS011;576;48.418;10.074;2023-05-20T10:28:02;7.90;;;7.20;;
1174;SDS011;576;48.418;10.074;2023-05-20T10:30:33;6.67;;;6.20;;
1174;SDS011;576;48.418;10.074;2023-05-20T10:33:02;6.07;;;5.57;;
1174;SDS011;576;48.418;10.074;2023-05-20T10:35:33;6.93;;;6.33;;
1174;SDS011;576;48.418;10.074;2023-05-20T10:38:09;6.10;;;5.67;;
1174;SDS011;576;48.418;10.074;2023-05-20T10:40:38;5.97;;;5.47;;
1174;SDS011;576;48.418;10.074;2023-05-20T10:43:07;7.73;;;6.87;;
1174;SDS011;576;48.418;10.074;2023-05-20T10:45:46;7.13;;;6.43;;
1174;SDS011;576;48.418;10.074;2023-05-20T10:48:19;8.00;;;6.03;;
1174;SDS011;576;48.418;10.074;2023-05-20T10:50:52;7.20;;;6.50;;
1174;SDS011;576;48.418;10.074;2023-05-20T10:53:24;7.67;;;6.97;;
1174;SDS011;576;48.418;10.074;2023-05-20T10:56:00;7.00;;;6.33;;
1174;SDS011;576;48.418;10.074;2023-05-20T10:58:35;7.07;;;6.57;;
1174;SDS011;576;48.418;10.074;2023-05-20T11:01:05;7.27;;;6.57;;
1174;SDS011;576;48.418;10.074;2023-05-20T11:03:34;6.80;;;6.20;;
1174;SDS011;576;48.418;10.074;2023-05-20T11:06:09;6.80;;;6.20;;
1174;SDS011;576;48.418;10.074;2023-05-20T11:08:43;8.50;;;6.80;;
1174;SDS011;576;48.418;10.074;2023-05-20T11:11:12;6.97;;;6.47;;
1174;SDS011;576;48.418;10.074;2023-05-20T11:13:42;6.93;;;6.33;;
1174;SDS011;576;48.418;10.074;2023-05-20T11:16:11;6.60;;;6.10;;
1174;SDS011;576;48.418;10.074;2023-05-20T11:18:39;8.83;;;6.67;;
1174;SDS011;576;48.418;10.074;2023-05-20T11:21:09;6.27;;;5.77;;
1174;SDS011;576;48.418;10.074;2023-05-20T11:23:37;7.30;;;6.43;;
1174;SDS011;576;48.418;10.074;2023-05-20T11:26:08;7.10;;;6.50;;
1174;SDS011;576;48.418;10.074;2023-05-20T11:28:37;8.30;;;6.70;;
1174;SDS011;576;48.418;10.074;2023-05-20T11:31:06;6.43;;;5.93;;
1174;SDS011;576;48.418;10.074;2023-05-20T11:33:40;6.20;;;5.70;;
1174;SDS011;576;48.418;10.074;2023-05-20T11:36:09;6.00;;;5.53;;
1174;SDS011;576;48.418;10.074;2023-05-20T11:38:53;5.97;;;5.57;;
1174;SDS011;576;48.418;10.074;2023-05-20T11:41:24;7.47;;;5.73;;
1174;SDS011;576;48.418;10.074;2023-05-20T11:43:56;5.70;;;5.30;;
1174;SDS011;576;48.418;10.074;2023-05-20T11:46:25;5.63;;;5.20;;
1174;SDS011;576;48.418;10.074;2023-05-20T11:48:54;6.03;;;5.53;;
1174;SDS011;576;48.418;10.074;2023-05-20T11:51:23;6.20;;;5.70;;
1174;SDS011;576;48.418;10.074;2023-05-20T11:53:58;7.00;;;6.00;;
1174;SDS011;576;48.418;10.074;2023-05-20T11:56:29;6.17;;;5.57;;
1174;SDS011;576;48.418;10.074;2023-05-20T11:58:58;6.80;;;6.30;;
1174;SDS011;576;48.418;10.074;2023-05-20T12:03:56;6.80;;;6.30;;
1174;SDS011;576;48.418;10.074;2023-05-20T12:06:24;7.40;;;6.00;;
1174;SDS011;576;48.418;10.074;2023-05-20T12:08:52;7.83;;;7.13;;
1174;SDS011;576;48.418;10.074;2023-05-20T12:11:21;6.90;;;6.30;;
1174;SDS011;576;48.418;10.074;2023-05-20T12:13:50;7.00;;;6.13;;
1174;SDS011;576;48.418;10.074;2023-05-20T12:16:19;7.30;;;6.60;;
1174;SDS011;576;48.418;10.074;2023-05-20T12:18:47;6.33;;;5.83;;
1174;SDS011;576;48.418;10.074;2023-05-20T12:21:15;7.27;;;6.57;;
1174;SDS011;576;48.418;10.074;2023-05-20T12:23:43;6.43;;;5.83;;
1174;SDS011;576;48.418;10.074;2023-05-20T12:26:12;6.90;;;6.30;;
1174;SDS011;576;48.418;10.074;2023-05-20T12:28:40;7.07;;;6.47;;
1174;SDS011;576;48.418;10.074;2023-05-20T12:31:09;7.13;;;6.53;;
1174;SDS011;576;48.418;10.074;2023-05-20T12:33:37;6.57;;;5.97;;
1174;SDS011;576;48.418;10.074;2023-05-20T12:36:06;6.60;;;6.00;;
1174;SDS011;576;48.418;10.074;2023-05-20T12:38:35;6.30;;;5.70;;
1174;SDS011;576;48.418;10.074;2023-05-20T12:41:03;6.73;;;5.77;;
1174;SDS011;576;48.418;10.074;2023-05-20T12:43:31;6.10;;;5.70;;
1174;SDS011;576;48.418;10.074;2023-05-20T12:46:02;8.30;;;5.87;;
1174;SDS011;576;48.418;10.074;2023-05-20T12:48:31;8.03;;;6.43;;
1174;SDS011;576;48.418;10.074;2023-05-20T12:51:00;5.53;;;5.03;;
1174;SDS011;576;48.418;10.074;2023-05-20T12:53:28;6.40;;;5.80;;
1174;SDS011;576;48.418;10.074;2023-05-20T12:55:56;6.47;;;5.90;;
1174;SDS011;576;48.418;10.074;2023-05-20T12:58:24;6.50;;;6.00;;
1174;SDS011;576;48.418;10.074;2023-05-20T13:00:52;6.17;;;5.60;;
1174;SDS011;576;48.418;10.074;2023-05-20T13:03:21;6.70;;;6.20;;
1174;SDS011;576;48.418;10.074;2023-05-20T13:05:50;5.70;;;5.20;;
1174;SDS011;576;48.418;10.074;2023-05-20T13:08:18;6.00;;;5.40;;
1174;SDS011;576;48.418;10.074;2023-05-20T13:10:47;5.73;;;5.23;;
1174;SDS011;576;48.418;10.074;2023-05-20T13:13:15;6.10;;;5.50;;
1174;SDS011;576;48.418;10.074;2023-05-20T13:15:46;5.90;;;5.03;;
1174;SDS011;576;48.418;10.074;2023-05-20T13:18:15;5.73;;;5.33;;
1174;SDS011;576;48.418;10.074;2023-05-20T13:20:44;6.40;;;5.80;;
1174;SDS011;576;48.418;10.074;2023-05-20T13:23:14;4.83;;;4.53;;
1174;SDS011;576;48.418;10.074;2023-05-20T13:25:43;5.13;;;4.60;;
1174;SDS011;576;48.418;10.074;2023-05-20T13:28:11;5.80;;;5.30;;
1174;SDS011;576;48.418;10.074;2023-05-20T13:30:42;6.07;;;5.60;;
1174;SDS011;576;48.418;10.074;2023-05-20T13:33:10;5.93;;;5.43;;
1174;SDS011;576;48.418;10.074;2023-05-20T13:35:38;6.67;;;5.97;;
1174;SDS011;576;48.418;10.074;2023-05-20T13:38:06;5.07;;;4.67;;
1174;SDS011;576;48.418;10.074;2023-05-20T13:40:36;5.70;;;5.30;;
1174;SDS011;576;48.418;10.074;2023-05-20T13:43:05;5.63;;;5.13;;
1174;SDS011;576;48.418;10.074;2023-05-20T13:45:35;4.70;;;4.40;;
1174;SDS011;576;48.418;10.074;2023-05-20T13:48:03;5.73;;;5.27;;
1174;SDS011;576;48.418;10.074;2023-05-20T13:50:32;5.40;;;4.97;;
1174;SDS011;576;48.418;10.074;2023-05-20T13:53:00;6.47;;;5.23;;
1174;SDS011;576;48.418;10.074;2023-05-20T13:55:28;8.57;;;5.63;;
1174;SDS011;576;48.418;10.074;2023-05-20T13:57:58;6.57;;;5.50;;
1174;SDS011;576;48.418;10.074;2023-05-20T14:00:26;5.20;;;4.70;;
1174;SDS011;576;48.418;10.074;2023-05-20T14:02:54;6.23;;;4.97;;
1174;SDS011;576;48.418;10.074;2023-05-20T14:05:23;5.90;;;5.20;;
1174;SDS011;576;48.418;10.074;2023-05-20T14:07:51;6.30;;;5.70;;
1174;SDS011;576;48.418;10.074;2023-05-20T14:10:19;5.93;;;5.53;;
1174;SDS011;576;48.418;10.074;2023-05-20T14:12:48;4.83;;;4.43;;
1174;SDS011;576;48.418;10.074;2023-05-20T14:15:17;8.00;;;5.53;;
1174;SDS011;576;48.418;10.074;2023-05-20T14:17:46;7.20;;;6.27;;
1174;SDS011;576;48.418;10.074;2023-05-20T14:20:14;6.17;;;4.70;;
1174;SDS011;576;48.418;10.074;2023-05-20T14:22:43;5.40;;;5.00;;
1174;SDS011;576;48.418;10.074;2023-05-20T14:25:11;7.10;;;5.07;;
1174;SDS011;576;48.418;10.074;2023-05-20T14:27:39;6.83;;;5.80;;
1174;SDS011;576;48.418;10.074;2023-05-20T14:30:08;6.30;;;5.70;;
1174;SDS011;576;48.418;10.074;2023-05-20T14:32:38;5.30;;;4.90;;
1174;SDS011;576;48.418;10.074;2023-05-20T14:35:07;7.30;;;4.97;;
1174;SDS011;576;48.418;10.074;2023-05-20T14:37:35;5.93;;;5.37;;
1174;SDS011;576;48.418;10.074;2023-05-20T14:40:04;7.60;;;5.50;;
1174;SDS011;576;48.418;10.074;2023-05-20T14:42:33;6.60;;;5.73;;
1174;SDS011;576;48.418;10.074;2023-05-20T14:45:03;7.10;;;5.90;;
1174;SDS011;576;48.418;10.074;2023-05-20T14:47:32;5.73;;;5.00;;
1174;SDS011;576;48.418;10.074;2023-05-20T14:50:01;7.40;;;4.40;;
1174;SDS011;576;48.418;10.074;2023-05-20T14:52:30;5.30;;;4.30;;
1174;SDS011;576;48.418;10.074;2023-05-20T14:54:58;5.30;;;4.80;;
1174;SDS011;576;48.418;10.074;2023-05-20T14:57:26;7.30;;;5.43;;
1174;SDS011;576;48.418;10.074;2023-05-20T14:59:55;5.77;;;5.00;;
1174;SDS011;576;48.418;10.074;2023-05-20T15:02:23;6.33;;;5.30;;
1174;SDS011;576;48.418;10.074;2023-05-20T15:04:51;5.20;;;4.80;;
1174;SDS011;576;48.418;10.074;2023-05-20T15:07:21;6.10;;;5.13;;
1174;SDS011;576;48.418;10.074;2023-05-20T15:09:49;4.60;;;4.23;;
1174;SDS011;576;48.418;10.074;2023-05-20T15:12:18;4.63;;;4.13;;
1174;SDS011;576;48.418;10.074;2023-05-20T15:14:46;7.80;;;4.53;;
1174;SDS011;576;48.418;10.074;2023-05-20T15:17:14;8.33;;;5.03;;
1174;SDS011;576;48.418;10.074;2023-05-20T15:19:43;4.70;;;4.20;;
1174;SDS011;576;48.418;10.074;2023-05-20T15:22:12;5.47;;;5.13;;
1174;SDS011;576;48.418;10.074;2023-05-20T15:24:41;5.87;;;5.30;;
1174;SDS011;576;48.418;10.074;2023-05-20T15:27:10;5.80;;;5.30;;
1174;SDS011;576;48.418;10.074;2023-05-20T15:29:38;10.07;;;5.27;;
1174;SDS011;576;48.418;10.074;2023-05-20T15:32:06;6.20;;;5.60;;
1174;SDS011;576;48.418;10.074;2023-05-20T15:34:34;6.90;;;5.27;;
1174;SDS011;576;48.418;10.074;2023-05-20T15:37:03;6.70;;;5.50;;